createdAt,value
2023-01-13T00:04:34.998Z,75.55
2023-01-13T00:09:34.906Z,75.58
2023-01-13T00:14:34.863Z,75.63
2023-01-13T00:19:34.779Z,75.65
2023-01-13T00:24:34.713Z,75.64
2023-01-13T00:29:34.657Z,75.65
2023-01-13T00:34:36.400Z,75.61
2023-01-13T00:39:34.511Z,75.61
2023-01-13T00:44:34.452Z,75.64
2023-01-13T00:49:34.379Z,75.63
2023-01-13T00:54:34.319Z,75.66
2023-01-13T00:59:34.234Z,75.63
2023-01-13T01:04:34.185Z,75.62
2023-01-13T01:09:54.175Z,75.15
2023-01-13T01:14:46.580Z,75.57
2023-01-13T01:19:46.532Z,75.71
2023-01-13T01:24:46.464Z,75.73
2023-01-13T01:29:46.390Z,75.66
2023-01-13T01:34:46.353Z,75.61
2023-01-13T01:39:46.254Z,75.59
2023-01-13T01:44:46.208Z,75.58
2023-01-13T01:49:46.127Z,75.61
2023-01-13T01:54:46.062Z,75.69
2023-01-13T01:59:45.987Z,75.76
2023-01-13T02:04:45.952Z,75.77
2023-01-13T02:09:45.823Z,75.79
2023-01-13T02:14:45.824Z,75.77
2023-01-13T02:19:45.762Z,75.74
2023-01-13T02:24:45.617Z,75.73
2023-01-13T02:29:45.571Z,75.69
2023-01-13T02:34:45.558Z,75.67
2023-01-13T02:39:45.437Z,75.68
2023-01-13T02:44:45.381Z,75.77
2023-01-13T02:49:45.307Z,75.95
2023-01-13T02:54:45.240Z,76.14
2023-01-13T02:59:45.198Z,76.27
2023-01-13T03:04:45.114Z,76.38
2023-01-13T03:09:45.070Z,76.34
2023-01-13T03:14:44.986Z,76.32
2023-01-13T03:19:44.924Z,76.06
2023-01-13T03:24:44.885Z,75.88
2023-01-13T03:29:44.777Z,75.93
2023-01-13T03:34:44.729Z,75.79
2023-01-13T03:39:44.670Z,75.83
2023-01-13T03:44:45.517Z,75.87
2023-01-13T03:49:44.500Z,75.89
2023-01-13T03:54:44.443Z,75.92
2023-01-13T03:59:44.375Z,75.90
2023-01-13T04:04:44.309Z,75.89
2023-01-13T04:09:44.251Z,75.85
2023-01-13T04:14:44.174Z,75.80
2023-01-13T04:19:44.100Z,75.78
2023-01-13T04:24:44.047Z,75.65
2023-01-13T04:29:43.987Z,75.67
2023-01-13T04:34:43.999Z,75.25
2023-01-13T04:39:43.829Z,75.00
2023-01-13T04:44:43.781Z,74.83
2023-01-13T04:49:43.714Z,74.53
2023-01-13T04:54:43.638Z,74.49
2023-01-13T04:59:43.559Z,74.52
2023-01-13T05:04:43.593Z,74.49
2023-01-13T05:09:43.444Z,74.57
2023-01-13T05:14:43.373Z,74.46
2023-01-13T05:19:51.745Z,73.99
2023-01-13T05:24:44.142Z,74.47
2023-01-13T05:29:44.094Z,74.64
2023-01-13T05:34:44.020Z,74.66
2023-01-13T05:39:43.948Z,74.67
2023-01-13T05:44:43.859Z,74.64
2023-01-13T05:49:43.877Z,74.64
2023-01-13T05:54:43.736Z,74.68
2023-01-13T05:59:43.702Z,74.69
2023-01-13T06:04:43.652Z,74.69
2023-01-13T06:09:43.559Z,74.69
2023-01-13T06:14:43.463Z,74.64
2023-01-13T06:19:43.416Z,74.70
2023-01-13T06:24:43.346Z,74.81
2023-01-13T06:29:43.307Z,74.85
2023-01-13T06:34:43.204Z,74.81
2023-01-13T06:39:43.186Z,74.84
2023-01-13T06:44:43.063Z,74.85
2023-01-13T06:49:43.031Z,74.82
2023-01-13T06:54:42.941Z,74.74
2023-01-13T06:59:42.879Z,74.69
2023-01-13T07:04:42.832Z,74.64
2023-01-13T07:09:42.796Z,74.59
2023-01-13T07:14:42.680Z,74.52
2023-01-13T07:19:42.626Z,74.48
2023-01-13T07:24:42.550Z,74.42
2023-01-13T07:29:42.507Z,74.41
2023-01-13T07:34:42.396Z,74.36
2023-01-13T07:39:42.355Z,74.32
2023-01-13T07:44:42.315Z,74.29
2023-01-13T07:49:42.220Z,74.07
2023-01-13T07:54:42.133Z,73.89
2023-01-13T07:59:42.074Z,73.77
2023-01-13T08:04:41.989Z,73.47
2023-01-13T08:09:41.925Z,73.34
2023-01-13T08:14:41.892Z,72.80
2023-01-13T08:19:41.842Z,72.26
2023-01-13T08:24:41.717Z,70.50
2023-01-13T08:29:41.658Z,70.28
2023-01-13T08:34:41.590Z,70.17
2023-01-13T08:39:41.519Z,63.27
2023-01-13T08:44:41.475Z,57.99
2023-01-13T08:49:41.405Z,62.91
2023-01-13T08:54:41.340Z,59.52
2023-01-13T08:59:41.248Z,58.08
2023-01-13T09:04:41.229Z,61.37
2023-01-13T09:09:41.164Z,63.95
2023-01-13T09:14:41.032Z,65.00
2023-01-13T09:19:41.028Z,65.14
2023-01-13T09:24:40.912Z,62.64
2023-01-13T09:29:40.889Z,58.86
2023-01-13T09:34:40.792Z,56.13
2023-01-13T09:39:40.813Z,56.52
2023-01-13T09:44:40.688Z,60.22
2023-01-13T09:49:40.584Z,60.65
2023-01-13T09:54:40.525Z,61.89
2023-01-13T09:59:40.469Z,62.20
2023-01-13T10:04:40.440Z,59.85
2023-01-13T10:09:40.337Z,55.11
2023-01-13T10:14:40.238Z,53.12
2023-01-13T10:19:40.187Z,50.07
2023-01-13T10:24:40.115Z,46.65
2023-01-13T10:29:40.050Z,43.88
2023-01-13T10:34:39.973Z,42.21
2023-01-13T10:39:39.908Z,39.85
2023-01-13T10:44:39.848Z,39.50
2023-01-13T10:49:39.813Z,38.58
2023-01-13T10:54:39.724Z,39.93
2023-01-13T10:59:39.653Z,42.60
2023-01-13T11:04:39.679Z,48.68
2023-01-13T11:09:40.326Z,51.84
2023-01-13T11:14:39.442Z,52.35
2023-01-13T11:19:39.393Z,53.64
2023-01-13T11:24:39.319Z,53.49
2023-01-13T11:29:39.244Z,54.31
2023-01-13T11:34:39.163Z,54.12
2023-01-13T11:39:39.181Z,54.27
2023-01-13T11:44:39.061Z,54.72
2023-01-13T11:49:39.001Z,55.01
2023-01-13T11:54:38.893Z,55.13
2023-01-13T11:59:38.880Z,55.23
2023-01-13T12:04:38.764Z,55.84
2023-01-13T12:09:38.728Z,56.26
2023-01-13T12:14:38.626Z,56.47
2023-01-13T12:19:38.590Z,56.07
2023-01-13T12:24:38.486Z,56.05
2023-01-13T12:29:38.418Z,55.66
2023-01-13T12:34:38.356Z,54.38
2023-01-13T12:39:38.312Z,52.52
2023-01-13T12:44:38.262Z,51.68
2023-01-13T12:49:38.207Z,52.54
2023-01-13T12:54:38.123Z,52.81
2023-01-13T12:59:38.040Z,53.61
2023-01-13T13:04:37.954Z,54.10
2023-01-13T13:09:37.903Z,55.07
2023-01-13T13:14:37.948Z,55.44
2023-01-13T13:19:37.758Z,56.14
2023-01-13T13:24:37.710Z,56.44
2023-01-13T13:29:37.627Z,56.77
2023-01-13T13:34:37.577Z,57.31
2023-01-13T13:39:39.788Z,57.70
2023-01-13T13:44:37.414Z,57.93
2023-01-13T13:49:37.358Z,58.00
2023-01-13T13:54:37.270Z,58.41
2023-01-13T13:59:37.237Z,58.69
2023-01-13T14:04:37.250Z,58.82
2023-01-13T14:09:37.071Z,59.03
2023-01-13T14:14:36.967Z,59.12
2023-01-13T14:19:36.915Z,59.36
2023-01-13T14:24:36.824Z,59.64
2023-01-13T14:29:36.783Z,59.93
2023-01-13T14:34:36.682Z,60.22
2023-01-13T14:39:38.094Z,60.43
2023-01-13T14:44:36.524Z,60.58
2023-01-13T14:49:36.471Z,60.44
2023-01-13T14:54:36.416Z,60.41
2023-01-13T14:59:36.361Z,60.70
2023-01-13T15:04:37.202Z,61.08
2023-01-13T15:09:36.202Z,61.38
2023-01-13T15:14:36.133Z,61.61
2023-01-13T15:19:36.070Z,61.83
2023-01-13T15:24:35.996Z,62.00
2023-01-13T15:29:35.975Z,62.28
2023-01-13T15:34:35.842Z,62.41
2023-01-13T15:39:35.794Z,62.54
2023-01-13T15:44:37.272Z,62.70
2023-01-13T15:49:35.677Z,62.87
2023-01-13T15:54:35.593Z,63.00
2023-01-13T15:59:35.553Z,63.08
2023-01-13T16:04:35.482Z,63.15
2023-01-13T16:09:35.453Z,63.18
2023-01-13T16:14:35.330Z,63.18
2023-01-13T16:19:35.273Z,63.20
2023-01-13T16:24:35.205Z,63.17
2023-01-13T16:29:35.206Z,63.17
2023-01-13T16:34:35.111Z,63.18
2023-01-13T16:39:35.063Z,63.20
2023-01-13T16:44:34.988Z,63.21
2023-01-13T16:49:34.930Z,63.24
2023-01-13T16:54:34.866Z,63.27
2023-01-13T16:59:34.832Z,63.28
2023-01-13T17:04:34.773Z,63.32
2023-01-13T17:09:35.028Z,63.34
2023-01-13T17:14:34.605Z,63.37
2023-01-13T17:19:34.558Z,63.57
2023-01-13T17:24:34.478Z,63.79
2023-01-13T17:29:34.395Z,63.92
2023-01-13T17:34:34.336Z,64.01
2023-01-13T17:39:34.279Z,64.12
2023-01-13T17:44:34.185Z,64.17
2023-01-13T17:49:34.140Z,64.22
2023-01-13T17:54:34.093Z,64.26
2023-01-13T17:59:33.990Z,64.30
2023-01-13T18:04:33.945Z,64.32
2023-01-13T18:09:33.927Z,64.36
2023-01-13T18:14:34.841Z,64.41
2023-01-13T18:19:33.741Z,64.46
2023-01-13T18:24:33.671Z,64.52
2023-01-13T18:29:33.582Z,64.54
2023-01-13T18:34:33.545Z,64.56
2023-01-13T18:39:33.439Z,64.63
2023-01-13T18:44:33.423Z,64.63
2023-01-13T18:49:33.309Z,64.67
2023-01-13T18:54:33.259Z,64.65
2023-01-13T18:59:33.238Z,64.67
2023-01-13T19:04:33.150Z,64.72
2023-01-13T19:09:33.068Z,64.78
2023-01-13T19:14:33.068Z,64.82
2023-01-13T19:19:32.940Z,64.90
2023-01-13T19:24:32.876Z,64.94
2023-01-13T19:29:33.968Z,65.01
2023-01-13T19:34:32.741Z,65.09
2023-01-13T19:39:32.655Z,65.16
2023-01-13T19:44:32.605Z,65.20
2023-01-13T19:49:32.547Z,65.28
2023-01-13T19:54:32.471Z,65.37
2023-01-13T19:59:32.384Z,65.46
2023-01-13T20:04:32.330Z,65.69
2023-01-13T20:09:32.294Z,65.89
2023-01-13T20:14:32.200Z,66.01
2023-01-13T20:19:32.192Z,66.16
2023-01-13T20:24:32.089Z,66.28
2023-01-13T20:29:31.982Z,66.36
2023-01-13T20:34:32.032Z,66.42
2023-01-13T20:39:31.939Z,66.43
2023-01-13T20:44:31.784Z,66.47
2023-01-13T20:49:31.711Z,66.47
2023-01-13T20:54:31.677Z,66.50
2023-01-13T20:59:31.606Z,66.53
2023-01-13T21:04:31.538Z,66.56
2023-01-13T21:09:31.502Z,66.61
2023-01-13T21:14:31.404Z,66.65
2023-01-13T21:19:31.304Z,66.72
2023-01-13T21:24:31.355Z,66.77
2023-01-13T21:29:31.179Z,66.82
2023-01-13T21:34:31.092Z,66.87
2023-01-13T21:39:31.054Z,66.92
2023-01-13T21:44:30.994Z,66.99
2023-01-13T21:49:30.942Z,67.10
2023-01-13T21:54:30.896Z,67.10
2023-01-13T21:59:30.780Z,67.11
2023-01-13T22:04:30.730Z,67.11
2023-01-13T22:09:30.667Z,67.11
2023-01-13T22:14:30.595Z,67.12
2023-01-13T22:19:30.491Z,67.11
2023-01-13T22:24:30.434Z,67.11
2023-01-13T22:29:30.365Z,67.10
2023-01-13T22:34:30.328Z,67.12
2023-01-13T22:39:30.227Z,67.10
2023-01-13T22:44:30.187Z,67.11
2023-01-13T22:49:30.089Z,67.07
2023-01-13T22:54:30.063Z,67.04
2023-01-13T22:59:29.943Z,67.00
2023-01-13T23:04:30.021Z,66.93
2023-01-13T23:09:29.819Z,66.93
2023-01-13T23:14:29.759Z,66.96
2023-01-13T23:19:29.690Z,66.98
2023-01-13T23:24:29.687Z,67.03
2023-01-13T23:29:29.557Z,67.11
2023-01-13T23:34:29.516Z,67.16
2023-01-13T23:39:30.236Z,67.25
2023-01-13T23:44:29.384Z,67.39
2023-01-13T23:49:30.086Z,67.51
2023-01-13T23:54:29.272Z,67.65
2023-01-13T23:59:29.297Z,67.72
